createdAt,value
2022-08-26T00:01:57.060Z,5.05
2022-08-26T00:04:26.145Z,6.07
2022-08-26T00:06:55.694Z,6.65
2022-08-26T00:09:24.619Z,6.88
2022-08-26T00:11:54.369Z,5.63
2022-08-26T00:14:24.192Z,5.75
2022-08-26T00:16:55.558Z,5.38
2022-08-26T00:19:22.903Z,6.35
2022-08-26T00:21:51.333Z,6.63
2022-08-26T00:24:20.782Z,5.07
2022-08-26T00:26:49.446Z,6.28
2022-08-26T00:29:17.637Z,5.65
2022-08-26T00:31:45.090Z,5.03
2022-08-26T00:34:14.131Z,4.88
2022-08-26T00:36:43.544Z,5.97
2022-08-26T00:39:11.042Z,5.68
2022-08-26T00:41:40.723Z,5.38
2022-08-26T00:44:11.266Z,5.65
2022-08-26T00:46:47.240Z,6.03
2022-08-26T00:49:44.392Z,4.72
2022-08-26T00:52:16.993Z,4.95
2022-08-26T00:54:54.023Z,5.28
2022-08-26T00:57:22.936Z,7.38
2022-08-26T00:59:57.037Z,6.15
2022-08-26T01:02:25.132Z,7.93
2022-08-26T01:04:58.043Z,5.20
2022-08-26T01:07:33.082Z,5.15
2022-08-26T01:10:07.836Z,6.15
2022-08-26T01:12:41.886Z,9.48
2022-08-26T01:15:13.794Z,11.93
2022-08-26T01:17:41.623Z,6.60
2022-08-26T01:20:28.636Z,5.50
2022-08-26T01:23:05.205Z,5.03
2022-08-26T01:25:35.366Z,5.53
2022-08-26T01:28:06.880Z,5.30
2022-08-26T01:30:35.725Z,5.80
2022-08-26T01:33:11.407Z,6.28
2022-08-26T01:35:38.753Z,6.18
2022-08-26T01:38:05.859Z,5.65
2022-08-26T01:40:37.730Z,7.93
2022-08-26T01:43:08.080Z,5.95
2022-08-26T01:45:39.584Z,5.87
2022-08-26T01:48:14.594Z,5.78
2022-08-26T01:50:43.717Z,5.45
2022-08-26T01:53:13.332Z,6.18
2022-08-26T01:55:45.667Z,6.90
2022-08-26T01:58:23.540Z,5.35
2022-08-26T02:00:51.417Z,5.78
2022-08-26T02:03:21.498Z,5.30
2022-08-26T02:05:59.819Z,6.55
2022-08-26T02:08:43.623Z,6.63
2022-08-26T02:11:11.350Z,5.70
2022-08-26T02:13:44.753Z,6.28
2022-08-26T02:16:12.575Z,8.63
2022-08-26T02:18:41.920Z,6.00
2022-08-26T02:21:11.391Z,6.70
2022-08-26T02:23:39.570Z,5.80
2022-08-26T02:26:19.184Z,8.95
2022-08-26T02:29:02.889Z,8.10
2022-08-26T02:31:29.911Z,9.88
2022-08-26T02:34:11.876Z,5.95
2022-08-26T02:36:39.966Z,5.05
2022-08-26T02:39:08.127Z,6.45
2022-08-26T02:41:35.788Z,6.53
2022-08-26T02:44:12.035Z,6.82
2022-08-26T02:46:39.496Z,7.28
2022-08-26T02:49:07.414Z,6.82
2022-08-26T02:51:34.324Z,9.25
2022-08-26T02:54:01.844Z,6.32
2022-08-26T02:56:29.358Z,6.40
2022-08-26T02:58:56.568Z,6.18
2022-08-26T03:01:29.979Z,5.57
2022-08-26T03:03:58.910Z,6.15
2022-08-26T03:06:25.910Z,6.22
2022-08-26T03:08:53.049Z,6.57
2022-08-26T03:11:20.210Z,8.48
2022-08-26T03:13:49.594Z,6.28
2022-08-26T03:16:16.951Z,9.07
2022-08-26T03:18:44.301Z,8.13
2022-08-26T03:21:19.805Z,7.18
2022-08-26T03:23:47.097Z,6.38
2022-08-26T03:26:15.392Z,5.00
2022-08-26T03:29:01.449Z,5.97
2022-08-26T03:31:29.950Z,5.30
2022-08-26T03:33:59.505Z,6.28
2022-08-26T03:36:27.627Z,5.70
2022-08-26T03:38:54.701Z,4.93
2022-08-26T03:41:21.790Z,6.65
2022-08-26T03:43:50.992Z,7.30
2022-08-26T03:46:20.108Z,7.63
2022-08-26T03:48:48.149Z,9.00
2022-08-26T03:51:19.671Z,6.60
2022-08-26T03:53:48.272Z,10.27
2022-08-26T03:56:15.476Z,8.40
2022-08-26T03:58:44.621Z,10.65
2022-08-26T04:01:14.046Z,8.77
2022-08-26T04:04:00.248Z,7.20
2022-08-26T04:06:30.435Z,9.00
2022-08-26T04:09:01.970Z,7.18
2022-08-26T04:11:34.520Z,7.78
2022-08-26T04:14:07.105Z,6.35
2022-08-26T04:16:34.501Z,6.53
2022-08-26T04:19:02.335Z,6.00
2022-08-26T04:21:29.356Z,6.40
2022-08-26T04:23:56.774Z,8.45
2022-08-26T04:26:26.181Z,5.20
2022-08-26T04:28:55.836Z,4.35
2022-08-26T04:31:23.415Z,5.57
2022-08-26T04:33:50.870Z,5.88
2022-08-26T04:36:19.841Z,5.90
2022-08-26T04:38:47.891Z,4.40
2022-08-26T04:41:16.855Z,5.93
2022-08-26T04:43:45.477Z,5.97
2022-08-26T04:46:14.423Z,5.72
2022-08-26T04:48:42.098Z,5.72
2022-08-26T04:51:10.087Z,6.30
2022-08-26T04:53:37.748Z,6.70
2022-08-26T04:56:05.458Z,5.60
2022-08-26T04:58:32.853Z,4.93
2022-08-26T05:00:59.976Z,6.38
2022-08-26T05:03:30.501Z,6.00
2022-08-26T05:05:58.540Z,6.18
2022-08-26T05:08:25.756Z,6.70
2022-08-26T05:10:56.394Z,6.25
2022-08-26T05:13:27.540Z,7.72
2022-08-26T05:15:55.759Z,9.45
2022-08-26T05:18:30.265Z,5.38
2022-08-26T05:20:57.523Z,6.70
2022-08-26T05:23:25.171Z,6.47
2022-08-26T05:25:59.154Z,7.10
2022-08-26T05:28:29.694Z,7.60
2022-08-26T05:30:56.830Z,6.90
2022-08-26T05:33:24.168Z,7.22
2022-08-26T05:35:51.481Z,11.63
2022-08-26T05:38:21.727Z,8.82
2022-08-26T05:40:52.774Z,8.55
2022-08-26T05:43:20.292Z,6.85
2022-08-26T05:45:50.161Z,6.70
2022-08-26T05:48:22.702Z,8.55
2022-08-26T05:50:53.572Z,11.20
2022-08-26T05:53:24.023Z,7.60
2022-08-26T05:55:54.605Z,6.85
2022-08-26T05:58:24.583Z,8.18
2022-08-26T06:01:05.258Z,11.60
2022-08-26T06:03:35.955Z,6.72
2022-08-26T06:06:29.256Z,8.05
2022-08-26T06:08:59.396Z,8.32
2022-08-26T06:11:29.784Z,5.70
2022-08-26T06:14:02.734Z,6.43
2022-08-26T06:16:35.170Z,5.70
2022-08-26T06:19:08.169Z,4.77
2022-08-26T06:21:41.722Z,7.18
2022-08-26T06:24:31.388Z,5.78
2022-08-26T06:27:05.085Z,7.57
2022-08-26T06:29:34.809Z,5.07
2022-08-26T06:32:04.823Z,7.20
2022-08-26T06:34:31.790Z,7.38
2022-08-26T06:37:03.286Z,4.72
2022-08-26T06:39:31.413Z,4.85
2022-08-26T06:42:00.009Z,5.55
2022-08-26T06:44:27.673Z,5.38
2022-08-26T06:46:55.141Z,6.68
2022-08-26T06:49:26.735Z,7.35
2022-08-26T06:51:58.443Z,6.57
2022-08-26T06:54:32.633Z,6.23
2022-08-26T06:57:01.233Z,6.93
2022-08-26T06:59:28.305Z,9.55
2022-08-26T07:01:55.299Z,5.43
2022-08-26T07:04:24.677Z,4.90
2022-08-26T07:06:53.827Z,8.32
2022-08-26T07:09:24.972Z,8.57
2022-08-26T07:11:53.537Z,6.28
2022-08-26T07:14:21.937Z,9.10
2022-08-26T07:16:50.391Z,6.05
2022-08-26T07:19:29.908Z,6.30
2022-08-26T07:21:58.787Z,5.75
2022-08-26T07:24:28.531Z,5.15
2022-08-26T07:27:03.654Z,4.97
2022-08-26T07:29:33.328Z,8.10
2022-08-26T07:32:00.797Z,3.75
2022-08-26T07:34:28.035Z,10.82
2022-08-26T07:36:57.073Z,5.38
2022-08-26T07:39:25.707Z,5.20
2022-08-26T07:41:53.989Z,4.82
2022-08-26T07:44:21.041Z,5.10
2022-08-26T07:46:52.302Z,7.57
2022-08-26T07:49:25.242Z,6.53
2022-08-26T07:54:21.016Z,7.07
2022-08-26T07:56:54.784Z,5.00
2022-08-26T07:59:23.549Z,5.85
2022-08-26T08:01:50.696Z,6.97
2022-08-26T08:04:25.506Z,5.88
2022-08-26T08:06:52.862Z,8.95
2022-08-26T08:09:19.830Z,6.03
2022-08-26T08:11:49.875Z,5.35
2022-08-26T08:14:22.147Z,11.40
2022-08-26T08:16:51.211Z,5.90
2022-08-26T08:19:23.136Z,5.20
2022-08-26T08:21:50.995Z,7.28
2022-08-26T08:24:18.231Z,6.68
2022-08-26T08:26:46.060Z,5.85
2022-08-26T08:29:13.381Z,9.48
2022-08-26T08:31:58.238Z,4.13
2022-08-26T08:34:28.397Z,6.13
2022-08-26T08:36:57.131Z,4.53
2022-08-26T08:39:26.125Z,6.53
2022-08-26T08:42:42.153Z,7.78
2022-08-26T08:45:26.124Z,5.50
2022-08-26T08:47:59.818Z,7.32
2022-08-26T08:50:46.550Z,6.93
2022-08-26T08:53:35.414Z,6.40
2022-08-26T08:56:42.809Z,5.10
2022-08-26T08:59:20.294Z,8.95
2022-08-26T09:01:53.922Z,7.22
2022-08-26T09:04:58.183Z,7.07
2022-08-26T09:07:38.759Z,4.88
2022-08-26T09:10:39.579Z,4.87
2022-08-26T09:13:24.863Z,4.68
2022-08-26T09:16:14.222Z,4.28
2022-08-26T09:18:47.293Z,5.57
2022-08-26T09:21:18.032Z,8.95
2022-08-26T09:23:49.485Z,4.70
2022-08-26T09:26:25.851Z,4.80
2022-08-26T09:29:05.611Z,4.15
2022-08-26T09:31:36.646Z,5.60
2022-08-26T09:34:26.047Z,6.35
2022-08-26T09:36:55.902Z,6.85
2022-08-26T09:39:29.102Z,5.72
2022-08-26T09:42:01.783Z,9.60
2022-08-26T09:44:31.339Z,4.43
2022-08-26T09:47:06.940Z,3.72
2022-08-26T09:49:39.528Z,4.38
2022-08-26T09:52:26.618Z,6.85
2022-08-26T09:55:12.268Z,7.68
2022-08-26T09:57:54.259Z,3.80
2022-08-26T10:00:38.624Z,4.90
2022-08-26T10:03:24.563Z,8.27
2022-08-26T10:06:04.388Z,5.38
2022-08-26T10:08:41.975Z,6.53
2022-08-26T10:11:19.568Z,5.82
2022-08-26T10:14:00.194Z,4.07
2022-08-26T10:16:47.822Z,5.43
2022-08-26T10:19:25.353Z,5.07
2022-08-26T10:22:17.680Z,3.75
2022-08-26T10:24:55.396Z,5.05
2022-08-26T10:27:53.757Z,5.07
2022-08-26T10:30:30.971Z,6.82
2022-08-26T10:33:08.081Z,6.10
2022-08-26T10:35:43.303Z,5.40
2022-08-26T10:38:17.804Z,4.03
2022-08-26T10:41:17.035Z,7.22
2022-08-26T10:44:03.667Z,7.15
2022-08-26T10:46:55.563Z,3.65
2022-08-26T10:49:22.450Z,5.72
2022-08-26T10:52:34.859Z,4.65
2022-08-26T10:56:01.063Z,4.97
2022-08-26T10:59:00.741Z,4.22
2022-08-26T11:02:15.886Z,4.75
2022-08-26T11:05:03.040Z,6.78
2022-08-26T11:07:41.026Z,5.00
2022-08-26T11:10:16.773Z,3.85
2022-08-26T11:12:49.450Z,4.15
2022-08-26T11:15:26.023Z,4.38
2022-08-26T11:17:55.313Z,3.83
2022-08-26T11:20:41.609Z,4.28
2022-08-26T11:23:23.914Z,4.53
2022-08-26T11:25:57.444Z,6.35
2022-08-26T11:28:49.713Z,4.88
2022-08-26T11:31:25.633Z,6.15
2022-08-26T11:33:57.851Z,6.32
2022-08-26T11:37:13.283Z,3.97
2022-08-26T11:39:57.109Z,6.30
2022-08-26T11:42:40.968Z,4.60
2022-08-26T11:45:30.803Z,4.88
2022-08-26T11:47:58.867Z,6.25
2022-08-26T11:50:28.682Z,4.05
2022-08-26T11:53:02.346Z,8.15
2022-08-26T11:55:33.174Z,3.72
2022-08-26T11:58:04.891Z,6.90
2022-08-26T12:00:58.160Z,5.63
2022-08-26T12:03:56.124Z,5.80
2022-08-26T12:06:37.461Z,6.10
2022-08-26T12:09:20.286Z,4.55
2022-08-26T12:11:47.218Z,13.32
2022-08-26T12:14:25.572Z,5.43
2022-08-26T12:16:55.097Z,7.43
2022-08-26T12:19:27.601Z,4.30
2022-08-26T12:22:21.037Z,4.30
2022-08-26T12:25:07.913Z,5.95
2022-08-26T12:27:34.775Z,6.53
2022-08-26T12:30:20.107Z,7.07
2022-08-26T12:33:03.397Z,6.32
2022-08-26T12:35:51.425Z,4.45
2022-08-26T12:38:21.953Z,6.68
2022-08-26T12:40:50.409Z,9.13
2022-08-26T12:43:45.776Z,5.95
2022-08-26T12:46:27.523Z,7.80
2022-08-26T12:51:29.727Z,8.45
2022-08-26T12:53:57.392Z,4.93
2022-08-26T12:56:36.484Z,8.00
2022-08-26T12:59:28.128Z,5.43
2022-08-26T13:01:55.352Z,8.13
2022-08-26T13:04:43.867Z,5.82
2022-08-26T13:07:24.781Z,7.00
2022-08-26T13:09:57.980Z,6.00
2022-08-26T13:12:37.323Z,6.80
2022-08-26T13:15:06.744Z,6.50
2022-08-26T13:17:35.828Z,7.15
2022-08-26T13:20:04.470Z,10.85
2022-08-26T13:22:32.031Z,7.22
2022-08-26T13:24:59.032Z,6.65
2022-08-26T13:27:27.154Z,4.97
2022-08-26T13:29:57.037Z,5.30
2022-08-26T13:32:27.390Z,6.32
2022-08-26T13:34:57.022Z,7.57
2022-08-26T13:37:34.464Z,6.18
2022-08-26T13:40:05.151Z,9.13
2022-08-26T13:42:32.167Z,11.52
2022-08-26T13:44:59.765Z,10.48
2022-08-26T13:47:27.667Z,7.05
2022-08-26T13:49:56.280Z,13.43
2022-08-26T13:52:27.341Z,13.43
2022-08-26T13:55:00.545Z,11.10
2022-08-26T13:57:29.929Z,8.40
2022-08-26T13:59:59.133Z,6.15
2022-08-26T14:02:27.661Z,7.30
2022-08-26T14:04:55.312Z,8.98
2022-08-26T14:07:23.000Z,13.10
2022-08-26T14:09:49.952Z,12.25
2022-08-26T14:12:17.119Z,17.23
2022-08-26T14:14:43.993Z,16.52
2022-08-26T14:17:14.806Z,19.27
2022-08-26T14:19:45.749Z,12.88
2022-08-26T14:22:15.876Z,12.30
2022-08-26T14:24:43.845Z,12.32
2022-08-26T14:27:12.426Z,18.20
2022-08-26T14:29:40.040Z,14.88
2022-08-26T14:32:13.444Z,14.15
2022-08-26T14:34:42.063Z,18.00
2022-08-26T14:37:10.635Z,15.02
2022-08-26T14:39:40.694Z,13.25
2022-08-26T14:42:08.984Z,15.60
2022-08-26T14:44:36.406Z,16.60
2022-08-26T14:47:06.567Z,20.42
2022-08-26T14:49:33.574Z,22.80
2022-08-26T14:52:00.564Z,17.35
2022-08-26T14:54:29.293Z,25.95
2022-08-26T14:57:04.969Z,22.02
2022-08-26T14:59:45.484Z,18.20
2022-08-26T15:02:32.587Z,11.63
2022-08-26T15:05:04.389Z,11.38
2022-08-26T15:07:31.549Z,15.80
2022-08-26T15:09:58.560Z,9.77
2022-08-26T15:12:25.708Z,11.55
2022-08-26T15:14:52.593Z,8.98
2022-08-26T15:17:19.506Z,7.53
2022-08-26T15:19:47.371Z,5.95
2022-08-26T15:22:14.416Z,9.32
2022-08-26T15:24:41.489Z,10.13
2022-08-26T15:27:09.033Z,8.68
2022-08-26T15:29:36.283Z,8.90
2022-08-26T15:32:04.469Z,8.68
2022-08-26T15:34:32.001Z,9.93
2022-08-26T15:36:59.280Z,8.55
2022-08-26T15:39:26.201Z,10.20
2022-08-26T15:41:53.155Z,10.32
2022-08-26T15:44:20.206Z,9.18
2022-08-26T15:46:49.625Z,12.38
2022-08-26T15:49:18.426Z,11.98
2022-08-26T15:51:47.930Z,15.07
2022-08-26T15:54:17.032Z,10.73
2022-08-26T15:56:45.547Z,18.58
2022-08-26T15:59:15.054Z,14.77
2022-08-26T16:01:43.569Z,15.63
2022-08-26T16:04:11.411Z,15.32
2022-08-26T16:06:42.445Z,14.02
2022-08-26T16:09:09.907Z,13.90
2022-08-26T16:11:37.861Z,12.52
2022-08-26T16:14:05.740Z,13.63
2022-08-26T16:16:32.949Z,14.80
2022-08-26T16:19:03.258Z,15.35
2022-08-26T16:21:34.188Z,14.23
2022-08-26T16:24:01.356Z,19.20
2022-08-26T16:26:32.744Z,17.92
2022-08-26T16:29:01.943Z,18.20
2022-08-26T16:31:28.993Z,15.60
2022-08-26T16:33:56.497Z,14.10
2022-08-26T16:36:23.432Z,16.52
2022-08-26T16:38:55.185Z,18.00
2022-08-26T16:41:24.064Z,18.17
2022-08-26T16:43:51.044Z,19.70
2022-08-26T16:46:18.816Z,16.83
2022-08-26T16:48:46.219Z,18.27
2022-08-26T16:51:17.193Z,17.38
2022-08-26T16:53:45.833Z,15.20
2022-08-26T16:56:33.482Z,15.95
2022-08-26T16:59:06.589Z,15.30
2022-08-26T17:01:33.844Z,18.02
2022-08-26T17:04:00.900Z,14.65
2022-08-26T17:06:28.183Z,17.10
2022-08-26T17:08:55.097Z,17.23
2022-08-26T17:11:21.956Z,19.70
2022-08-26T17:13:48.912Z,21.15
2022-08-26T17:16:16.012Z,23.27
2022-08-26T17:18:43.044Z,16.00
2022-08-26T17:21:12.537Z,17.67
2022-08-26T17:23:41.276Z,17.77
2022-08-26T17:26:09.170Z,19.30
2022-08-26T17:28:36.228Z,19.00
2022-08-26T17:31:05.230Z,20.52
2022-08-26T17:33:32.797Z,19.92
2022-08-26T17:36:00.648Z,20.48
2022-08-26T17:38:29.142Z,19.10
2022-08-26T17:40:57.806Z,17.38
2022-08-26T17:43:29.181Z,18.40
2022-08-26T17:46:07.384Z,19.45
2022-08-26T17:48:36.937Z,18.92
2022-08-26T17:51:23.587Z,17.73
2022-08-26T17:53:52.143Z,16.50
2022-08-26T17:56:26.009Z,19.35
2022-08-26T17:59:02.508Z,19.08
2022-08-26T18:01:31.325Z,17.88
2022-08-26T18:04:00.522Z,15.43
2022-08-26T18:06:30.332Z,18.02
2022-08-26T18:08:58.181Z,19.00
2022-08-26T18:11:25.459Z,18.50
2022-08-26T18:13:53.116Z,17.40
2022-08-26T18:16:20.827Z,21.42
2022-08-26T18:18:49.093Z,21.25
2022-08-26T18:21:22.654Z,19.20
2022-08-26T18:23:51.598Z,21.35
2022-08-26T18:26:23.268Z,25.13
2022-08-26T18:28:50.521Z,27.80
2022-08-26T18:31:18.389Z,27.75
2022-08-26T18:33:46.223Z,27.23
2022-08-26T18:36:23.864Z,28.98
2022-08-26T18:38:51.988Z,33.88
2022-08-26T18:41:22.089Z,26.40
2022-08-26T18:43:51.040Z,30.83
2022-08-26T18:46:20.584Z,33.17
2022-08-26T18:48:50.751Z,31.58
2022-08-26T18:51:33.355Z,31.45
2022-08-26T18:54:03.997Z,34.83
2022-08-26T18:56:31.798Z,36.50
2022-08-26T18:58:59.902Z,32.00
2022-08-26T19:01:29.709Z,33.97
2022-08-26T19:04:00.027Z,35.58
2022-08-26T19:06:29.407Z,34.95
2022-08-26T19:08:58.143Z,34.00
2022-08-26T19:11:31.241Z,32.15
2022-08-26T19:13:59.109Z,32.63
2022-08-26T19:16:27.770Z,28.60
2022-08-26T19:18:58.915Z,30.15
2022-08-26T19:21:25.817Z,34.45
2022-08-26T19:23:58.313Z,31.25
2022-08-26T19:28:53.402Z,32.67
2022-08-26T19:31:20.749Z,34.33
2022-08-26T19:33:47.980Z,32.08
2022-08-26T19:36:19.184Z,37.58
2022-08-26T19:38:46.802Z,31.73
2022-08-26T19:41:19.184Z,30.42
2022-08-26T19:43:46.546Z,37.03
2022-08-26T19:46:21.080Z,29.27
2022-08-26T19:48:51.746Z,35.05
2022-08-26T19:51:28.623Z,33.25
2022-08-26T19:53:58.265Z,35.85
2022-08-26T19:56:26.827Z,35.65
2022-08-26T19:58:54.920Z,38.85
2022-08-26T20:01:23.084Z,40.47
2022-08-26T20:03:50.491Z,35.28
2022-08-26T20:06:19.986Z,37.22
2022-08-26T20:08:47.310Z,41.92
2022-08-26T20:11:19.058Z,30.23
2022-08-26T20:13:47.571Z,34.25
2022-08-26T20:16:16.310Z,36.17
2022-08-26T20:19:03.276Z,29.73
2022-08-26T20:21:35.618Z,33.08
2022-08-26T20:24:14.469Z,32.08
2022-08-26T20:26:44.954Z,36.53
2022-08-26T20:29:18.008Z,25.33
2022-08-26T20:31:46.330Z,25.42
2022-08-26T20:34:16.338Z,33.65
2022-08-26T20:36:45.220Z,33.50
2022-08-26T20:39:13.785Z,33.10
2022-08-26T20:41:41.507Z,33.50
2022-08-26T20:44:09.463Z,30.88
2022-08-26T20:46:37.070Z,30.17
2022-08-26T20:49:05.955Z,29.58
2022-08-26T20:51:37.373Z,31.55
2022-08-26T20:54:06.491Z,34.53
2022-08-26T20:56:34.202Z,34.85
2022-08-26T20:59:01.653Z,29.05
2022-08-26T21:01:34.612Z,29.52
2022-08-26T21:04:09.267Z,32.08
2022-08-26T21:06:38.222Z,33.53
2022-08-26T21:09:08.623Z,36.08
2022-08-26T21:11:37.889Z,28.95
2022-08-26T21:14:16.174Z,35.40
2022-08-26T21:16:45.868Z,33.20
2022-08-26T21:19:17.564Z,33.25
2022-08-26T21:21:46.025Z,31.63
2022-08-26T21:24:13.394Z,33.47
2022-08-26T21:26:40.475Z,30.50
2022-08-26T21:29:09.870Z,30.38
2022-08-26T21:31:43.557Z,28.08
2022-08-26T21:34:14.289Z,29.88
2022-08-26T21:36:41.792Z,34.63
2022-08-26T21:39:11.694Z,36.38
2022-08-26T21:41:40.433Z,39.10
2022-08-26T21:44:08.133Z,28.90
2022-08-26T21:46:37.284Z,27.05
2022-08-26T21:49:08.086Z,27.02
2022-08-26T21:51:43.109Z,29.92
2022-08-26T21:54:11.663Z,32.08
2022-08-26T21:56:44.500Z,27.92
2022-08-26T21:59:12.097Z,27.65
2022-08-26T22:01:39.005Z,32.20
2022-08-26T22:04:08.605Z,37.28
2022-08-26T22:06:43.384Z,28.73
2022-08-26T22:09:12.134Z,32.25
2022-08-26T22:11:39.571Z,31.90
2022-08-26T22:14:06.514Z,31.35
2022-08-26T22:16:33.712Z,31.40
2022-08-26T22:19:00.737Z,26.70
2022-08-26T22:21:28.604Z,27.70
2022-08-26T22:23:58.194Z,29.92
2022-08-26T22:26:29.235Z,28.52
2022-08-26T22:28:58.996Z,27.58
2022-08-26T22:31:37.381Z,26.60
2022-08-26T22:34:12.769Z,30.27
2022-08-26T22:36:44.303Z,29.65
2022-08-26T22:39:13.897Z,29.30
2022-08-26T22:41:43.138Z,32.08
2022-08-26T22:44:11.680Z,26.45
2022-08-26T22:46:40.035Z,27.75
2022-08-26T22:49:10.736Z,31.58
2022-08-26T22:51:38.088Z,28.08
2022-08-26T22:54:06.277Z,34.08
2022-08-26T22:56:33.850Z,23.83
2022-08-26T22:59:01.098Z,32.55
2022-08-26T23:01:28.330Z,28.40
2022-08-26T23:03:55.388Z,31.08
2022-08-26T23:06:22.436Z,34.15
2022-08-26T23:08:49.508Z,26.98
2022-08-26T23:11:16.473Z,28.20
2022-08-26T23:13:43.788Z,28.65
2022-08-26T23:16:13.458Z,34.60
2022-08-26T23:18:41.533Z,29.10
2022-08-26T23:21:10.594Z,28.80
2022-08-26T23:23:38.507Z,28.85
2022-08-26T23:26:07.947Z,32.30
2022-08-26T23:28:37.414Z,27.48
2022-08-26T23:31:05.399Z,32.80
2022-08-26T23:33:50.726Z,28.75
2022-08-26T23:36:18.500Z,29.00
2022-08-26T23:38:52.597Z,28.67
2022-08-26T23:41:22.976Z,27.08
2022-08-26T23:43:51.553Z,28.63
2022-08-26T23:46:19.339Z,28.65
2022-08-26T23:48:47.197Z,30.60
2022-08-26T23:51:32.863Z,22.73
2022-08-26T23:54:00.046Z,33.88
2022-08-26T23:56:27.284Z,30.25
2022-08-26T23:58:55.180Z,27.88
